Terminal Aerodrome Forecast
Issued by NWS Rapid City, SD

Home | Current Version | Previous Version | Graphics & Text | Print | Product List | Glossary On
Versions: 1 2 3 4 5 6 7 8 9 10 11 12 13 14 15 16 17 18
000
FTUS43 KUNR 260310 AAA
TAFRAP
TAF AMD
KRAP 260310Z 2603/2624 31008KT P6SM SCT070 BKN100
      TEMPO 2603/2605 1SM -SHSN BKN011
     FM260500 31007KT P6SM SCT100
     FM261500 23009KT P6SM SCT250=

USA.gov is the U.S. government's official web portal to all federal, state and local government web resources and services.